x

Sentry Shoal (46131) Wave Buoy

2:00 - Sat 1st Oct 2016 All times are PDT. -7 hours from GMT.

  • Sig Wave height 0.3ft
  • Peak Period 3s
  • Wind
    9mph, 13mph gusts
  • Sea Temp 56°f
  • Luft Temp 52°f
  • Sea Pressure 1012.7mb
  • Sentry Shoal
  • Sentry Shoal

More Historic Weather Station data

Upgrade to MSW Pro to gain access to the past 30 days of data for over 8000 Wavebouys and Weather Stations around the globe.

Join Pro

Comparision Forecast

View Surf forecast
   
Sa 10/01 2:00 0.3ft 3s 9 13 mph 1012.7mb 56f 52f
1:00 0.3ft 3s 4 7 mph 1012.9mb 56f 52f
12:00 0.3ft 3s 4
mph
1012.9mb 56f 52f
11:00 0.7ft 3s 4 7 mph 1012.7mb 56f 52f
10:00 1.3ft 4s 4 7 mph 1012.7mb 56f 52f
9:00 1.6ft 4s 2 4 mph 1012.9mb 56f 52f
8:00 2ft 4s 4
mph
1012.8mb 56f 53f
7:00 2ft 3s 11 16 mph 1012.7mb 56f 54f
6:00 1.3ft 2s 16 20 mph 1012.6mb 56f 54f
5:00 0.7ft 2s 9 13 mph 1012.5mb 57f 55f
4:00 0.7ft 2s 2
mph
1012.8mb 56f 54f
3:00 0.3ft 2s  -  2 mph 1013mb 56f 54f
2:00 0.3ft 4s 2 4 mph 1013.2mb 56f 55f
1:00 0.3ft 3s 2 4 mph 1013.4mb 56f 54f
12:00 0.3ft 3s  -  2 mph 1013.4mb 56f 54f
Fr 09/30 11:00  -  3s 2 4 mph 1013.5mb 56f 54f
10:00 0.3ft 3s 2
mph
1013.5mb 56f 55f
9:00 0.3ft 3s  -  2 mph 1013.5mb 57f 55f
8:00 0.3ft 3s 2
mph
1013.4mb 57f 56f
7:00 0.3ft 3s 2 4 mph 1013.6mb 57f 55f
6:00 0.3ft 2s 4
mph
1013.7mb 57f 55f
5:00 0.3ft 2s 4
mph
1014.1mb 58f 55f
3:00 0.3ft 2s 2 4 mph 1015.3mb 58f 55f
2:00 0.3ft 3s 2 4 mph 1015.9mb 57f 54f
1:00 0.3ft 2s 2
mph
1016.7mb 58f 54f
12:00 0.3ft 2s 2 4 mph 1017.3mb 56f 53f
11:00 0.3ft 2s 4 7 mph 1017.5mb 56f 52f
10:00 0.3ft 2s 4 7 mph 1017.7mb 56f 51f
9:00 0.3ft 2s 7 9 mph 1017.7mb 55f 50f
8:00 0.3ft 2s 9
mph
1017.7mb 55f 51f
7:00 0.3ft 2s 7 9 mph 1017.7mb 55f 50f
6:00 0.3ft 4s 7 9 mph 1017.6mb 55f 51f
5:00 0.3ft 2s 7
mph
1017.5mb 55f 52f
4:00 0.3ft 2s 9
mph
1017.4mb 56f 52f
3:00 0.3ft 2s 9
mph
1017.6mb 56f 52f
2:00 0.3ft 2s 9 11 mph 1017.5mb 56f 54f
1:00 0.3ft 2s 9 11 mph 1017.5mb 55f 55f
12:00 0.3ft 3s 11 13 mph 1017.5mb 56f 55f
Do 09/29 11:00 0.3ft 3s 7 9 mph 1017.5mb 56f 56f
10:00 0.3ft 3s 7 9 mph 1017.5mb 56f 56f
9:00 0.3ft 2s 4 7 mph 1017.4mb 57f 57f
8:00 0.3ft 2s 4 7 mph 1017.3mb 57f 58f
7:00 0.3ft 2s 4
mph
1017.3mb 58f 58f
6:00 0.3ft 2s 4
mph
1017.1mb 58f 58f
5:00 0.3ft 2s 4
mph
1017.3mb 58f 59f
4:00 0.3ft 2s 2 4 mph 1017.6mb 57f 58f
3:00 0.3ft 2s 2
mph
1018.1mb 58f 57f
2:00 0.3ft 2s  -  2 mph 1018.7mb 58f 56f
1:00 0.3ft 4s 4
mph
1019.2mb 57f 55f
12:00 0.3ft 2s 4 7 mph 1019.5mb 56f 54f
11:00 0.3ft 2s 9 11 mph 1019.7mb 56f 52f
10:00 0.7ft 2s 9
mph
1019.6mb 56f 51f
9:00 1ft 3s 11 13 mph 1019.4mb 56f 51f
8:00 1ft 2s 11 13 mph 1019.1mb 55f 51f
7:00 1ft 2s 13 16 mph 1018.7mb 55f 52f
6:00 1ft 2s 13 16 mph 1018.5mb 55f 52f
5:00 1ft 2s 16 18 mph 1018.3mb 55f 53f
4:00 1ft 2s 13 16 mph 1018.5mb 55f 53f
3:00 1ft 2s 13
mph
1018.6mb 55f 53f
2:00 1ft 2s 13 16 mph 1018.4mb 55f 53f
1:00 1ft 2s 13 16 mph 1018.4mb 55f 54f
12:00 1ft 2s 13
mph
1018.6mb 56f 54f
Mi 09/28 11:00 0.7ft 2s 13
mph
1018.6mb 56f 55f
10:00 0.7ft 3s 11 13 mph 1018.4mb 56f 55f
9:00 0.7ft 2s 11
mph
1018.2mb 56f 56f
8:00 0.3ft 2s 13 18 mph 1017.8mb 57f 57f
7:00 0.3ft 2s 7 11 mph 1017.8mb 58f 58f
6:00  -  2s 4 7 mph 1017.7mb 58f 58f
5:00 0.3ft 2s 2 4 mph 1018mb 58f 59f
4:00 0.3ft 2s 2
mph
1018.4mb 58f 58f
3:00 0.3ft 3s 2
mph
1019.1mb 58f 58f
2:00 0.3ft 2s 2 4 mph 1019.7mb 57f 57f
1:00 0.3ft 2s 7 9 mph 1020.4mb 56f 56f
12:00 0.7ft 2s 7 9 mph 1021.1mb 56f 55f
11:00 1ft 2s 11 13 mph 1021.4mb 56f 53f
10:00 1.3ft 3s 11 13 mph 1021.7mb 56f 52f
9:00 1.3ft 2s 13 16 mph 1021.8mb 55f 51f
8:00 1.3ft 2s 16 18 mph 1021.7mb 55f 51f
7:00 1.3ft 3s 16 18 mph 1021.5mb 56f 51f
6:00 1.3ft 3s 18 20 mph 1021.5mb 56f 51f
5:00 1.3ft 3s 16 18 mph 1021.4mb 56f 52f
4:00 1.3ft 2s 16 18 mph 1021.6mb 56f 52f
3:00 1.3ft 2s 16 20 mph 1021.9mb 57f 53f
2:00 1.3ft 2s 18 20 mph 1022.2mb 57f 53f
1:00 1.6ft 3s 16 18 mph 1022.5mb 57f 53f
12:00 1.3ft 2s 13 16 mph 1022.8mb 57f 54f
Di 09/27 11:00 1.3ft 3s 13 16 mph 1022.9mb 57f 55f